Harbor Beach, Michigan
Current Conditions -  °F | °C
As of 3:16 PM on Sunday 23 Nov 2014 (Local Time) from KBAX Reporting Station
Broken Clouds Broken Clouds  
Wind Chill:   Ceiling: 9000
Heat Index:   Visibility: 10mi
Dew Point:   Wind: 15mph
Humidity: 93%   Direction: 170°S
Pressure: 29.72"   Gusts: 20mph
Location:  43.84°N, 82.65°W
Report Text: KBAX 232016Z AUTO 17013G17KT 10SM SCT070 BKN090 08/07 A2972 RMK AO2 T00840073
Loading
Personal Weather Stations






























Interactive Weather Map New forecast layout! Learn more

10-Day Weather Forecast

Advertisements
Track Severe Weather on mobile